createdAt,value
2018-06-09T00:01:25.555Z,19.70
2018-06-09T00:03:55.886Z,19.70
2018-06-09T00:06:26.229Z,19.70
2018-06-09T00:08:56.517Z,19.60
2018-06-09T00:11:26.845Z,19.70
2018-06-09T00:13:57.117Z,19.60
2018-06-09T00:16:27.476Z,19.60
2018-06-09T00:18:57.780Z,19.60
2018-06-09T00:21:28.084Z,19.60
2018-06-09T00:23:58.350Z,19.60
2018-06-09T00:26:28.606Z,19.60
2018-06-09T00:28:58.905Z,19.60
2018-06-09T00:31:29.169Z,19.60
2018-06-09T00:33:59.484Z,19.60
2018-06-09T00:36:29.776Z,19.60
2018-06-09T00:39:00.126Z,19.60
2018-06-09T00:41:30.432Z,19.50
2018-06-09T00:44:00.751Z,19.50
2018-06-09T00:46:31.036Z,19.50
2018-06-09T00:49:01.391Z,19.50
2018-06-09T00:51:31.705Z,19.50
2018-06-09T00:54:02.074Z,19.30
2018-06-09T00:56:48.237Z,19.20
2018-06-09T00:59:18.533Z,19.20
2018-06-09T01:01:48.786Z,19.20
2018-06-09T01:04:19.112Z,19.30
2018-06-09T01:06:49.369Z,19.30
2018-06-09T01:09:19.627Z,19.40
2018-06-09T01:11:49.945Z,19.40
2018-06-09T01:14:20.245Z,19.40
2018-06-09T01:16:50.581Z,19.50
2018-06-09T01:19:20.968Z,19.50
2018-06-09T01:21:51.379Z,19.60
2018-06-09T01:24:21.639Z,19.60
2018-06-09T01:26:52.005Z,19.50
2018-06-09T01:29:23.228Z,19.60
2018-06-09T01:31:53.559Z,19.50
2018-06-09T01:34:23.845Z,19.50
2018-06-09T01:39:24.131Z,19.50
2018-06-09T01:41:54.433Z,19.50
2018-06-09T01:44:24.726Z,19.40
2018-06-09T01:46:55.031Z,19.50
2018-06-09T01:49:25.349Z,19.40
2018-06-09T01:51:55.613Z,19.40
2018-06-09T01:54:25.920Z,19.40
2018-06-09T01:56:56.199Z,19.40
2018-06-09T01:59:26.491Z,19.40
2018-06-09T02:01:56.835Z,19.30
2018-06-09T02:04:27.101Z,19.30
2018-06-09T02:06:57.406Z,19.30
2018-06-09T02:09:27.673Z,19.30
2018-06-09T02:11:57.946Z,19.30
2018-06-09T02:14:28.250Z,19.30
2018-06-09T02:16:58.504Z,19.30
2018-06-09T02:19:28.810Z,19.20
2018-06-09T02:21:59.068Z,19.20
2018-06-09T02:24:29.393Z,19.20
2018-06-09T02:26:59.703Z,19.20
2018-06-09T02:29:29.991Z,19.20
2018-06-09T02:32:00.286Z,19.30
2018-06-09T02:34:30.609Z,19.30
2018-06-09T02:37:00.876Z,19.20
2018-06-09T02:39:31.161Z,19.20
2018-06-09T02:42:01.433Z,19.10
2018-06-09T02:44:31.705Z,19.10
2018-06-09T02:47:01.997Z,19.10
2018-06-09T02:49:32.297Z,19.10
2018-06-09T02:52:02.624Z,19.00
2018-06-09T02:54:32.892Z,19.00
2018-06-09T02:59:33.116Z,19.00
2018-06-09T03:02:03.439Z,19.00
2018-06-09T03:04:33.787Z,18.90
2018-06-09T03:07:04.072Z,18.90
2018-06-09T03:09:34.376Z,18.90
2018-06-09T03:12:04.648Z,18.90
2018-06-09T03:14:35.009Z,18.90
2018-06-09T03:17:05.280Z,18.90
2018-06-09T03:19:35.554Z,18.90
2018-06-09T03:22:05.860Z,18.90
2018-06-09T03:24:36.129Z,18.80
2018-06-09T03:27:06.421Z,18.90
2018-06-09T03:29:36.701Z,18.90
2018-06-09T03:32:07.005Z,19.00
2018-06-09T03:34:37.268Z,19.00
2018-06-09T03:37:07.533Z,19.00
2018-06-09T03:39:37.820Z,19.10
2018-06-09T03:42:08.102Z,19.10
2018-06-09T03:44:38.437Z,19.10
2018-06-09T03:47:08.728Z,19.20
2018-06-09T03:49:39.051Z,19.20
2018-06-09T03:52:09.334Z,19.20
2018-06-09T03:54:39.685Z,19.30
2018-06-09T03:57:09.996Z,19.30
2018-06-09T03:59:40.301Z,19.30
2018-06-09T04:02:10.557Z,19.30
2018-06-09T04:04:40.879Z,19.40
2018-06-09T04:07:11.176Z,19.40
2018-06-09T04:09:41.497Z,19.40
2018-06-09T04:12:11.786Z,19.40
2018-06-09T04:14:42.084Z,19.50
2018-06-09T04:17:12.418Z,19.50
2018-06-09T04:19:42.696Z,19.50
2018-06-09T04:22:12.996Z,19.60
2018-06-09T04:27:13.213Z,19.50
2018-06-09T04:29:43.812Z,19.50
2018-06-09T04:32:14.097Z,19.50
2018-06-09T04:34:44.393Z,19.50
2018-06-09T04:37:14.686Z,19.50
2018-06-09T04:39:44.963Z,19.50
2018-06-09T04:42:15.296Z,19.50
2018-06-09T04:44:45.649Z,19.50
2018-06-09T04:47:15.917Z,19.50
2018-06-09T04:49:46.243Z,19.50
2018-06-09T04:52:16.575Z,19.50
2018-06-09T04:54:46.899Z,19.50
2018-06-09T04:57:17.188Z,19.60
2018-06-09T04:59:47.480Z,19.60
2018-06-09T05:02:17.762Z,19.50
2018-06-09T05:04:48.118Z,19.60
2018-06-09T05:07:18.464Z,19.60
2018-06-09T05:09:48.756Z,19.50
2018-06-09T05:14:48.977Z,19.50
2018-06-09T05:17:19.328Z,19.60
2018-06-09T05:19:49.621Z,19.60
2018-06-09T05:22:19.949Z,19.60
2018-06-09T05:24:50.257Z,19.60
2018-06-09T05:27:20.546Z,19.50
2018-06-09T05:29:50.885Z,19.30
2018-06-09T05:32:21.784Z,19.20
2018-06-09T05:34:52.088Z,19.10
2018-06-09T05:37:22.394Z,19.20
2018-06-09T05:39:52.709Z,19.20
2018-06-09T05:42:23.040Z,19.10
2018-06-09T05:44:53.337Z,19.10
2018-06-09T05:47:23.759Z,19.10
2018-06-09T05:49:54.073Z,19.00
2018-06-09T05:52:24.466Z,18.90
2018-06-09T05:57:24.701Z,18.80
2018-06-09T05:59:55.028Z,18.80
2018-06-09T06:04:55.307Z,18.90
2018-06-09T06:07:25.605Z,19.00
2018-06-09T06:09:55.926Z,19.10
2018-06-09T06:12:26.206Z,19.10
2018-06-09T06:14:56.519Z,19.20
2018-06-09T06:17:26.813Z,19.30
2018-06-09T06:19:57.093Z,19.30
2018-06-09T06:22:27.416Z,19.40
2018-06-09T06:24:57.724Z,19.50
2018-06-09T06:27:28.136Z,19.60
2018-06-09T06:29:58.510Z,19.70
2018-06-09T06:32:29.628Z,19.80
2018-06-09T06:34:59.944Z,19.90
2018-06-09T06:37:30.280Z,20.00
2018-06-09T06:40:00.640Z,20.20
2018-06-09T06:42:31.093Z,20.30
2018-06-09T06:45:01.398Z,20.40
2018-06-09T06:47:31.750Z,20.40
2018-06-09T06:50:02.230Z,20.40
2018-06-09T06:52:34.595Z,20.50
2018-06-09T06:55:04.966Z,20.50
2018-06-09T06:57:35.489Z,20.60
2018-06-09T07:00:05.792Z,20.60
2018-06-09T07:02:36.081Z,20.70
2018-06-09T07:05:06.336Z,20.70
2018-06-09T07:07:36.583Z,20.70
2018-06-09T07:10:06.900Z,20.80
2018-06-09T07:12:37.248Z,20.90
2018-06-09T07:15:07.615Z,20.90
2018-06-09T07:17:37.974Z,21.00
2018-06-09T07:20:09.412Z,21.10
2018-06-09T07:22:40.766Z,21.30
2018-06-09T07:25:11.238Z,21.40
2018-06-09T07:27:42.161Z,21.50
2018-06-09T07:30:12.413Z,21.70
2018-06-09T07:32:42.685Z,21.80
2018-06-09T07:35:13.031Z,21.90
2018-06-09T07:37:43.212Z,22.00
2018-06-09T07:40:13.502Z,22.00
2018-06-09T07:42:43.836Z,22.10
2018-06-09T07:45:14.188Z,22.10
2018-06-09T07:47:44.526Z,22.20
2018-06-09T07:50:14.840Z,22.20
2018-06-09T07:52:45.296Z,22.40
2018-06-09T07:55:15.588Z,22.50
2018-06-09T07:57:46.074Z,22.60
2018-06-09T08:00:16.381Z,22.70
2018-06-09T08:02:46.712Z,22.90
2018-06-09T08:05:17.065Z,23.00
2018-06-09T08:07:47.625Z,23.20
2018-06-09T08:10:17.996Z,23.30
2018-06-09T08:12:48.375Z,23.30
2018-06-09T08:15:18.752Z,23.40
2018-06-09T08:17:49.151Z,23.50
2018-06-09T08:20:19.448Z,23.60
2018-06-09T08:22:49.818Z,23.70
2018-06-09T08:25:20.224Z,23.70
2018-06-09T08:27:50.636Z,23.70
2018-06-09T08:30:21.012Z,23.70
2018-06-09T08:32:51.336Z,23.70
2018-06-09T08:35:21.596Z,23.60
2018-06-09T08:37:51.967Z,23.60
2018-06-09T08:40:22.393Z,23.50
2018-06-09T08:42:52.743Z,23.40
2018-06-09T08:45:23.086Z,23.30
2018-06-09T08:47:53.508Z,23.30
2018-06-09T08:50:23.805Z,23.20
2018-06-09T08:52:54.132Z,23.20
2018-06-09T08:55:24.419Z,23.20
2018-06-09T08:57:55.078Z,23.10
2018-06-09T09:00:25.347Z,23.20
2018-06-09T09:02:55.684Z,23.20
2018-06-09T09:05:25.997Z,23.20
2018-06-09T09:07:56.341Z,23.30
2018-06-09T09:10:26.712Z,23.30
2018-06-09T09:12:57.094Z,23.30
2018-06-09T09:15:27.312Z,23.40
2018-06-09T09:17:57.600Z,23.40
2018-06-09T09:22:57.810Z,23.40
2018-06-09T09:25:28.114Z,23.40
2018-06-09T09:27:58.469Z,23.40
2018-06-09T09:30:28.769Z,23.30
2018-06-09T09:32:59.097Z,23.30
2018-06-09T09:35:29.441Z,23.30
2018-06-09T09:37:59.796Z,23.30
2018-06-09T09:40:30.101Z,23.30
2018-06-09T09:43:00.421Z,23.20
2018-06-09T09:45:30.779Z,23.30
2018-06-09T09:48:01.163Z,23.20
2018-06-09T09:50:31.458Z,23.10
2018-06-09T09:53:01.774Z,23.00
2018-06-09T09:55:32.098Z,23.00
2018-06-09T09:58:03.787Z,22.90
2018-06-09T10:00:39.953Z,22.80
2018-06-09T10:03:10.309Z,22.80
2018-06-09T10:05:40.633Z,22.80
2018-06-09T10:08:10.937Z,22.80
2018-06-09T10:10:41.296Z,22.80
2018-06-09T10:13:11.715Z,22.80
2018-06-09T10:15:42.061Z,22.80
2018-06-09T10:18:12.429Z,22.70
2018-06-09T10:20:42.688Z,22.70
2018-06-09T10:23:13.017Z,22.70
2018-06-09T10:25:43.312Z,22.70
2018-06-09T10:28:13.713Z,22.80
2018-06-09T10:30:43.959Z,22.80
2018-06-09T10:33:14.328Z,22.80
2018-06-09T10:35:44.653Z,22.80
2018-06-09T10:38:15.053Z,22.80
2018-06-09T10:40:45.344Z,22.80
2018-06-09T10:43:15.650Z,22.80
2018-06-09T10:45:45.945Z,22.90
2018-06-09T10:48:16.307Z,22.90
2018-06-09T10:50:46.655Z,22.80
2018-06-09T10:53:17.009Z,22.70
2018-06-09T10:55:47.297Z,22.70
2018-06-09T10:58:17.649Z,22.80
2018-06-09T11:00:48.000Z,22.90
2018-06-09T11:03:18.353Z,23.00
2018-06-09T11:05:48.704Z,23.10
2018-06-09T11:10:48.889Z,23.00
2018-06-09T11:13:19.230Z,23.20
2018-06-09T11:15:49.539Z,23.30
2018-06-09T11:18:19.877Z,23.30
2018-06-09T11:20:50.188Z,23.50
2018-06-09T11:23:20.469Z,23.60
2018-06-09T11:25:51.713Z,23.70
2018-06-09T11:28:22.027Z,23.90
2018-06-09T11:30:52.326Z,24.10
2018-06-09T11:33:22.678Z,24.20
2018-06-09T11:38:22.956Z,24.60
2018-06-09T11:40:53.305Z,24.90
2018-06-09T11:43:23.644Z,25.30
2018-06-09T11:45:53.989Z,25.70
2018-06-09T11:50:54.168Z,26.80
2018-06-09T11:53:24.440Z,27.60
2018-06-09T11:58:24.785Z,29.10
2018-06-09T12:03:25.082Z,29.40
2018-06-09T12:05:55.407Z,29.60
2018-06-09T12:08:25.696Z,29.80
2018-06-09T12:10:55.996Z,30.00
2018-06-09T12:15:56.239Z,30.10
2018-06-09T12:20:56.432Z,30.00
2018-06-09T12:23:26.756Z,29.90
2018-06-09T12:25:57.064Z,29.70
2018-06-09T12:28:27.347Z,29.50
2018-06-09T12:33:27.553Z,29.20
2018-06-09T12:35:57.857Z,29.30
2018-06-09T12:38:28.174Z,29.40
2018-06-09T12:40:58.488Z,29.40
2018-06-09T12:43:28.776Z,29.40
2018-06-09T12:50:58.908Z,29.40
2018-06-09T12:53:29.140Z,29.50
2018-06-09T12:58:29.377Z,29.50
2018-06-09T13:00:59.801Z,29.40
2018-06-09T13:03:30.065Z,29.30
2018-06-09T13:06:00.353Z,29.20
2018-06-09T13:08:30.671Z,29.10
2018-06-09T13:11:01.000Z,29.40
2018-06-09T13:13:31.341Z,30.20
2018-06-09T13:18:31.583Z,32.80
2018-06-09T13:21:01.909Z,34.00
2018-06-09T13:23:32.255Z,34.80
2018-06-09T13:26:02.524Z,35.30
2018-06-09T13:28:32.871Z,35.70
2018-06-09T13:31:03.202Z,36.10
2018-06-09T13:33:33.557Z,36.50
2018-06-09T13:36:03.937Z,36.80
2018-06-09T13:38:34.238Z,37.00
2018-06-09T13:41:04.558Z,36.90
2018-06-09T13:43:34.862Z,36.60
2018-06-09T13:46:05.205Z,36.10
2018-06-09T13:48:35.532Z,35.90
2018-06-09T13:51:05.927Z,35.80
2018-06-09T13:53:36.267Z,35.60
2018-06-09T13:56:06.593Z,35.40
2018-06-09T13:58:36.920Z,35.30
2018-06-09T14:01:07.598Z,35.40
2018-06-09T14:03:37.919Z,35.00
2018-06-09T14:08:38.212Z,34.30
2018-06-09T14:11:08.700Z,34.20
2018-06-09T14:13:39.546Z,33.80
2018-06-09T14:16:09.926Z,33.40
2018-06-09T14:18:40.244Z,33.20
2018-06-09T14:21:10.581Z,33.00
2018-06-09T14:23:41.147Z,32.80
2018-06-09T14:26:11.496Z,32.70
2018-06-09T14:28:41.804Z,32.40
2018-06-09T14:31:12.148Z,32.30
2018-06-09T14:33:42.453Z,32.10
2018-06-09T14:36:12.812Z,31.80
2018-06-09T14:38:43.139Z,31.80
2018-06-09T14:41:13.600Z,31.90
2018-06-09T14:43:43.951Z,32.10
2018-06-09T14:46:14.337Z,32.20
2018-06-09T14:48:44.748Z,32.20
2018-06-09T14:51:15.588Z,31.90
2018-06-09T14:53:46.086Z,32.10
2018-06-09T14:56:16.352Z,32.00
2018-06-09T15:01:17.448Z,32.10
2018-06-09T15:03:48.452Z,32.20
2018-06-09T15:06:18.981Z,32.30
2018-06-09T15:11:20.061Z,32.30
2018-06-09T15:13:50.318Z,32.30
2018-06-09T15:16:20.623Z,32.30
2018-06-09T15:18:51.124Z,32.30
2018-06-09T15:26:21.433Z,33.40
2018-06-09T15:28:51.740Z,34.00
2018-06-09T15:31:22.006Z,34.10
2018-06-09T15:33:52.298Z,34.00
2018-06-09T15:36:22.571Z,33.70
2018-06-09T15:41:22.750Z,33.70
2018-06-09T15:43:53.137Z,34.00
2018-06-09T15:46:23.473Z,34.00
2018-06-09T15:48:53.884Z,33.80
2018-06-09T15:53:54.104Z,33.70
2018-06-09T15:56:24.444Z,33.70
2018-06-09T16:01:24.728Z,33.60
2018-06-09T16:03:55.044Z,33.60
2018-06-09T16:06:25.441Z,33.40
2018-06-09T16:11:25.771Z,33.60
2018-06-09T16:13:56.192Z,34.00
2018-06-09T16:16:26.657Z,34.00
2018-06-09T16:18:57.860Z,33.90
2018-06-09T16:21:28.224Z,33.70
2018-06-09T16:23:58.597Z,33.70
2018-06-09T16:26:28.944Z,33.70
2018-06-09T16:31:30.036Z,33.40
2018-06-09T16:34:00.355Z,33.10
2018-06-09T16:36:30.748Z,32.60
2018-06-09T16:39:01.189Z,32.30
2018-06-09T16:41:31.475Z,31.80
2018-06-09T16:44:02.041Z,31.30
2018-06-09T16:46:32.313Z,30.70
2018-06-09T16:49:02.617Z,30.20
2018-06-09T16:51:32.911Z,29.80
2018-06-09T16:59:03.144Z,28.80
2018-06-09T17:01:33.413Z,28.50
2018-06-09T17:04:03.739Z,28.20
2018-06-09T17:06:34.048Z,27.90
2018-06-09T17:09:06.332Z,27.50
2018-06-09T17:11:36.686Z,27.20
2018-06-09T17:14:07.013Z,26.80
2018-06-09T17:16:38.231Z,26.60
2018-06-09T17:19:08.555Z,26.30
2018-06-09T17:21:38.930Z,26.10
2018-06-09T17:24:09.229Z,25.90
2018-06-09T17:26:39.528Z,25.70
2018-06-09T17:29:09.894Z,25.60
2018-06-09T17:31:40.234Z,25.60
2018-06-09T17:34:10.552Z,25.40
2018-06-09T17:36:41.788Z,25.20
2018-06-09T17:39:12.068Z,25.10
2018-06-09T17:41:42.934Z,25.00
2018-06-09T17:44:13.205Z,24.90
2018-06-09T17:46:43.600Z,24.90
2018-06-09T17:49:13.870Z,24.90
2018-06-09T17:51:44.153Z,24.80
2018-06-09T17:54:14.413Z,24.70
2018-06-09T17:56:44.830Z,24.50
2018-06-09T18:01:45.112Z,24.30
2018-06-09T18:04:15.477Z,24.20
2018-06-09T18:06:45.801Z,24.10
2018-06-09T18:09:16.181Z,24.00
2018-06-09T18:11:46.493Z,23.90
2018-06-09T18:14:16.834Z,23.90
2018-06-09T18:16:47.049Z,23.70
2018-06-09T18:19:17.447Z,23.70
2018-06-09T18:21:47.668Z,23.60
2018-06-09T18:24:17.953Z,23.60
2018-06-09T18:26:48.267Z,23.50
2018-06-09T18:29:18.743Z,23.50
2018-06-09T18:31:49.080Z,23.30
2018-06-09T18:34:19.440Z,23.30
2018-06-09T18:36:49.707Z,23.20
2018-06-09T18:41:49.948Z,23.20
2018-06-09T18:44:20.284Z,23.20
2018-06-09T18:46:50.662Z,23.10
2018-06-09T18:49:20.994Z,23.00
2018-06-09T18:51:51.333Z,23.00
2018-06-09T18:54:21.670Z,23.00
2018-06-09T18:56:51.988Z,22.90
2018-06-09T18:59:22.350Z,22.90
2018-06-09T19:01:52.621Z,22.80
2018-06-09T19:04:22.989Z,22.70
2018-06-09T19:06:53.304Z,22.60
2018-06-09T19:09:23.656Z,22.50
2018-06-09T19:11:54.003Z,22.40
2018-06-09T19:14:24.291Z,22.40
2018-06-09T19:16:54.661Z,22.20
2018-06-09T19:19:24.974Z,22.20
2018-06-09T19:21:56.280Z,22.20
2018-06-09T19:26:57.376Z,22.10
2018-06-09T19:29:27.756Z,22.00
2018-06-09T19:31:58.109Z,22.00
2018-06-09T19:34:28.428Z,21.90
2018-06-09T19:36:58.736Z,21.90
2018-06-09T19:39:29.129Z,21.90
2018-06-09T19:41:59.481Z,21.90
2018-06-09T19:44:29.771Z,21.80
2018-06-09T19:47:00.125Z,21.80
2018-06-09T19:49:30.474Z,21.80
2018-06-09T19:52:00.786Z,21.70
2018-06-09T19:54:31.068Z,21.70
2018-06-09T19:57:01.690Z,21.60
2018-06-09T19:59:31.964Z,21.60
2018-06-09T20:02:02.364Z,21.60
2018-06-09T20:04:32.661Z,21.50
2018-06-09T20:07:02.978Z,21.50
2018-06-09T20:09:33.325Z,21.50
2018-06-09T20:12:04.752Z,21.50
2018-06-09T20:14:35.152Z,21.50
2018-06-09T20:17:05.567Z,21.50
2018-06-09T20:19:35.854Z,21.50
2018-06-09T20:22:06.129Z,21.40
2018-06-09T20:24:36.489Z,21.40
2018-06-09T20:27:06.805Z,21.40
2018-06-09T20:29:37.182Z,21.50
2018-06-09T20:32:07.514Z,21.40
2018-06-09T20:34:37.796Z,21.40
2018-06-09T20:39:38.057Z,21.30
2018-06-09T20:42:08.421Z,21.30
2018-06-09T20:44:38.742Z,21.20
2018-06-09T20:47:09.100Z,21.10
2018-06-09T20:52:09.484Z,21.10
2018-06-09T20:54:39.799Z,21.00
2018-06-09T20:57:10.336Z,20.90
2018-06-09T20:59:40.684Z,20.90
2018-06-09T21:02:11.001Z,20.90
2018-06-09T21:04:41.376Z,21.00
2018-06-09T21:07:11.678Z,20.90
2018-06-09T21:09:42.026Z,20.90
2018-06-09T21:12:12.317Z,20.80
2018-06-09T21:14:42.644Z,20.80
2018-06-09T21:17:12.949Z,20.80
2018-06-09T21:19:43.396Z,20.80
2018-06-09T21:22:13.667Z,20.80
2018-06-09T21:24:44.014Z,20.80
2018-06-09T21:27:19.383Z,20.80
2018-06-09T21:29:55.566Z,20.70
2018-06-09T21:32:29.798Z,20.70
2018-06-09T21:35:22.457Z,20.60
2018-06-09T21:37:56.813Z,20.50
2018-06-09T21:40:31.181Z,20.50
2018-06-09T21:45:41.966Z,20.50
2018-06-09T21:48:12.273Z,20.40
2018-06-09T21:50:42.561Z,20.30
2018-06-09T21:53:12.828Z,20.30
2018-06-09T21:58:13.184Z,20.30
2018-06-09T22:00:43.538Z,20.20
2018-06-09T22:03:13.817Z,20.20
2018-06-09T22:05:44.193Z,20.10
2018-06-09T22:08:14.465Z,20.00
2018-06-09T22:10:44.804Z,20.00
2018-06-09T22:13:15.169Z,19.90
2018-06-09T22:15:45.514Z,20.00
2018-06-09T22:18:15.800Z,19.90
2018-06-09T22:20:46.160Z,19.90
2018-06-09T22:23:16.453Z,19.90
2018-06-09T22:25:51.837Z,19.80
2018-06-09T22:28:22.135Z,19.80
2018-06-09T22:30:52.436Z,19.80
2018-06-09T22:33:22.797Z,19.70
2018-06-09T22:35:53.122Z,19.70
2018-06-09T22:38:29.051Z,19.80
2018-06-09T22:40:59.341Z,19.80
2018-06-09T22:43:29.677Z,19.70
2018-06-09T22:46:00.006Z,19.60
2018-06-09T22:48:30.293Z,19.50
2018-06-09T22:51:00.599Z,19.40
2018-06-09T22:53:30.939Z,19.40
2018-06-09T22:56:01.175Z,19.40
2018-06-09T22:58:31.494Z,19.30
2018-06-09T23:08:31.545Z,19.30
2018-06-09T23:11:01.878Z,19.30
2018-06-09T23:13:32.163Z,19.30
2018-06-09T23:16:02.441Z,19.30
2018-06-09T23:18:32.732Z,19.30
2018-06-09T23:21:03.006Z,19.20
2018-06-09T23:23:33.300Z,18.90
2018-06-09T23:28:33.489Z,19.10
2018-06-09T23:31:03.792Z,19.10
2018-06-09T23:33:34.125Z,19.10
2018-06-09T23:36:04.375Z,19.00
2018-06-09T23:38:34.703Z,19.00
2018-06-09T23:41:05.013Z,18.90
2018-06-09T23:43:35.338Z,18.90
2018-06-09T23:46:05.621Z,18.90
2018-06-09T23:48:35.888Z,18.90
2018-06-09T23:51:06.210Z,18.90
2018-06-09T23:53:36.480Z,18.90
2018-06-09T23:56:06.767Z,18.90
2018-06-09T23:58:37.020Z,18.80
